Terminal Aerodrome Forecast
Issued by NWS

Home | Current Version | Previous Version | Text Only | Print | Product List | Glossary Off
Versions: 1 2 3 4 5 6 7 8 9 10 11 12 13 14 15 16 17 18 19 20 21 22 23 24

000
FTUS43 KLOT 180901 AAA
TAFDPA
TAF AMD
KDPA 180901Z 1809/1906 20004KT 4SM BR BCFG SKC
     FM181000 00000KT 2SM BR MIFG SKC
      TEMPO 1811/1814 1/2SM FZFG VV003
     FM181500 17010KT P6SM SCT250
     FM181900 18015G25KT P6SM SCT250
     FM190000 17014G22KT P6SM BKN250 WS020/20060KT=

USA.gov is the U.S. government's official web portal to all federal, state and local government web resources and services.